createdAt,value
2017-09-12T00:01:10.380Z,6.20
2017-09-12T00:03:38.164Z,6.07
2017-09-12T00:06:05.865Z,6.20
2017-09-12T00:08:33.541Z,5.93
2017-09-12T00:11:01.083Z,5.90
2017-09-12T00:13:28.858Z,5.00
2017-09-12T00:15:56.453Z,6.70
2017-09-12T00:18:24.268Z,6.40
2017-09-12T00:20:52.167Z,7.10
2017-09-12T00:23:20.046Z,5.20
2017-09-12T00:25:51.291Z,5.90
2017-09-12T00:28:19.425Z,5.70
2017-09-12T00:30:47.226Z,5.03
2017-09-12T00:33:15.328Z,5.40
2017-09-12T00:35:42.997Z,5.97
2017-09-12T00:38:10.634Z,6.40
2017-09-12T00:40:38.402Z,6.10
2017-09-12T00:43:06.034Z,6.33
2017-09-12T00:48:07.858Z,6.23
2017-09-12T00:50:35.478Z,6.30
2017-09-12T00:53:03.161Z,5.70
2017-09-12T00:55:30.998Z,6.30
2017-09-12T00:57:58.746Z,5.50
2017-09-12T01:00:26.429Z,5.40
2017-09-12T01:02:54.140Z,6.40
2017-09-12T01:05:22.574Z,6.07
2017-09-12T01:07:50.290Z,6.40
2017-09-12T01:10:18.020Z,7.23
2017-09-12T01:12:45.616Z,5.73
2017-09-12T01:15:13.345Z,6.03
2017-09-12T01:17:40.989Z,4.93
2017-09-12T01:20:08.648Z,5.77
2017-09-12T01:22:36.304Z,5.30
2017-09-12T01:25:03.938Z,5.30
2017-09-12T01:27:31.487Z,5.70
2017-09-12T01:29:59.274Z,5.93
2017-09-12T01:32:27.061Z,4.47
2017-09-12T01:34:54.669Z,4.53
2017-09-12T01:37:22.246Z,4.90
2017-09-12T01:39:50.819Z,5.43
2017-09-12T01:42:18.641Z,6.80
2017-09-12T01:44:46.845Z,5.60
2017-09-12T01:47:16.266Z,5.90
2017-09-12T01:49:43.926Z,5.13
2017-09-12T01:52:11.624Z,4.80
2017-09-12T01:54:39.414Z,4.90
2017-09-12T01:57:07.015Z,5.20
2017-09-12T01:59:34.689Z,4.77
2017-09-12T02:02:03.002Z,5.40
2017-09-12T02:04:30.861Z,5.27
2017-09-12T02:06:59.644Z,5.00
2017-09-12T02:09:27.421Z,5.00
2017-09-12T02:11:55.145Z,4.87
2017-09-12T02:14:23.145Z,5.30
2017-09-12T02:16:50.921Z,4.93
2017-09-12T02:19:19.272Z,4.87
2017-09-12T02:21:46.911Z,4.43
2017-09-12T02:24:16.464Z,4.47
2017-09-12T02:26:44.195Z,4.60
2017-09-12T02:29:11.927Z,5.30
2017-09-12T02:31:42.282Z,3.80
2017-09-12T02:34:10.002Z,4.40
2017-09-12T02:36:37.765Z,4.27
2017-09-12T02:39:05.370Z,4.60
2017-09-12T02:41:32.958Z,4.53
2017-09-12T02:44:00.529Z,3.97
2017-09-12T02:46:28.218Z,5.10
2017-09-12T02:48:55.842Z,4.20
2017-09-12T02:51:23.521Z,4.60
2017-09-12T02:53:51.132Z,4.30
2017-09-12T02:56:18.998Z,4.23
2017-09-12T02:58:46.568Z,5.30
2017-09-12T03:01:14.116Z,3.80
2017-09-12T03:03:41.714Z,4.50
2017-09-12T03:06:09.423Z,4.00
2017-09-12T03:08:37.043Z,4.30
2017-09-12T03:11:04.646Z,4.30
2017-09-12T03:13:32.205Z,4.13
2017-09-12T03:15:59.813Z,4.30
2017-09-12T03:18:27.405Z,4.30
2017-09-12T03:20:55.216Z,4.27
2017-09-12T03:23:22.803Z,3.50
2017-09-12T03:25:50.601Z,4.27
2017-09-12T03:28:18.235Z,4.50
2017-09-12T03:30:45.975Z,3.83
2017-09-12T03:33:13.609Z,3.87
2017-09-12T03:35:41.177Z,4.20
2017-09-12T03:38:08.732Z,4.27
2017-09-12T03:40:36.378Z,3.97
2017-09-12T03:43:04.163Z,4.80
2017-09-12T03:45:31.970Z,4.23
2017-09-12T03:47:59.820Z,4.00
2017-09-12T03:50:27.627Z,3.80
2017-09-12T03:52:55.187Z,4.60
2017-09-12T03:55:22.821Z,3.60
2017-09-12T03:57:50.354Z,4.10
2017-09-12T04:00:17.965Z,5.23
2017-09-12T04:02:45.531Z,4.20
2017-09-12T04:05:13.322Z,3.70
2017-09-12T04:07:40.903Z,4.70
2017-09-12T04:10:08.502Z,3.77
2017-09-12T04:12:36.097Z,3.90
2017-09-12T04:15:03.671Z,3.67
2017-09-12T04:17:31.429Z,4.10
2017-09-12T04:19:59.003Z,4.03
2017-09-12T04:22:27.453Z,3.80
2017-09-12T04:24:55.129Z,4.20
2017-09-12T04:27:22.867Z,5.23
2017-09-12T04:29:50.519Z,5.10
2017-09-12T04:32:18.085Z,5.73
2017-09-12T04:34:45.650Z,6.50
2017-09-12T04:37:13.173Z,6.30
2017-09-12T04:39:40.865Z,7.17
2017-09-12T04:42:08.407Z,6.20
2017-09-12T04:44:35.950Z,6.70
2017-09-12T04:47:03.563Z,6.83
2017-09-12T04:49:31.375Z,8.47
2017-09-12T04:51:58.972Z,6.67
2017-09-12T04:54:26.715Z,7.13
2017-09-12T04:56:54.463Z,6.40
2017-09-12T04:59:22.014Z,6.10
2017-09-12T05:01:49.636Z,5.53
2017-09-12T05:04:17.229Z,4.97
2017-09-12T05:06:45.042Z,5.93
2017-09-12T05:09:12.839Z,4.93
2017-09-12T05:11:42.293Z,5.33
2017-09-12T05:14:10.131Z,5.23
2017-09-12T05:19:12.303Z,5.13
2017-09-12T05:21:42.538Z,4.63
2017-09-12T05:24:10.196Z,4.87
2017-09-12T05:26:37.855Z,4.90
2017-09-12T05:34:16.276Z,4.30
2017-09-12T05:36:49.120Z,4.77
2017-09-12T05:39:20.275Z,4.07
2017-09-12T05:41:48.512Z,4.47
2017-09-12T05:44:17.112Z,4.57
2017-09-12T05:46:45.391Z,4.63
2017-09-12T05:49:13.153Z,4.40
2017-09-12T05:51:51.397Z,4.10
2017-09-12T05:54:22.920Z,4.23
2017-09-12T06:09:41.715Z,4.10
2017-09-12T06:33:10.598Z,3.00
2017-09-12T06:40:50.949Z,3.87
2017-09-12T06:43:22.419Z,3.07
2017-09-12T06:45:55.827Z,3.30
2017-09-12T06:51:34.368Z,2.90
2017-09-12T06:54:06.506Z,3.00
2017-09-12T06:56:46.438Z,2.43
2017-09-12T07:07:05.756Z,2.63
2017-09-12T07:09:34.836Z,1.97
2017-09-12T07:14:34.837Z,2.70
2017-09-12T07:17:02.730Z,3.10
2017-09-12T07:19:35.598Z,2.30
2017-09-12T07:30:57.978Z,2.70
2017-09-12T07:33:27.186Z,1.80
2017-09-12T07:45:29.786Z,1.83
2017-09-12T07:47:59.836Z,1.80
2017-09-12T07:50:31.355Z,1.97
2017-09-12T07:55:39.887Z,1.83
2017-09-12T07:58:08.434Z,2.70
2017-09-12T08:10:57.077Z,2.50
2017-09-12T08:13:28.255Z,2.00
2017-09-12T08:21:16.739Z,2.10
2017-09-12T08:32:34.078Z,2.10
2017-09-12T08:35:01.938Z,2.00
2017-09-12T08:37:29.659Z,1.47
2017-09-12T08:39:57.584Z,1.87
2017-09-12T08:42:25.643Z,1.90
2017-09-12T08:44:55.030Z,1.50
2017-09-12T08:47:28.085Z,1.80
2017-09-12T08:49:56.107Z,1.80
2017-09-12T08:55:38.896Z,1.00
2017-09-12T08:58:09.043Z,2.03
2017-09-12T09:00:37.084Z,1.63
2017-09-12T09:03:05.849Z,1.60
2017-09-12T09:05:36.557Z,1.37
2017-09-12T09:08:05.190Z,1.50
2017-09-12T09:13:08.904Z,1.70
2017-09-12T09:18:18.578Z,2.67
2017-09-12T09:31:02.536Z,2.17
2017-09-12T09:48:55.392Z,1.97
2017-09-12T09:51:27.027Z,1.13
2017-09-12T10:05:50.115Z,1.60
2017-09-12T10:08:45.994Z,1.10
2017-09-12T10:17:11.962Z,1.13
2017-09-12T10:19:40.876Z,1.43
2017-09-12T10:27:56.553Z,1.23
2017-09-12T10:30:31.663Z,0.70
2017-09-12T10:36:30.706Z,1.10
2017-09-12T14:13:03.403Z,0.50
2017-09-12T15:05:09.351Z,0.70
2017-09-12T15:38:31.335Z,1.07
2017-09-12T15:53:35.459Z,0.80
2017-09-12T15:58:37.955Z,0.57
2017-09-12T16:03:50.298Z,0.73
2017-09-12T16:06:18.039Z,0.60
2017-09-12T16:09:14.454Z,0.77
2017-09-12T16:17:55.799Z,0.90
2017-09-12T16:20:23.528Z,0.77
2017-09-12T16:22:51.949Z,1.00
2017-09-12T16:25:19.610Z,1.17
2017-09-12T16:27:47.709Z,0.80
2017-09-12T16:30:15.799Z,0.50
2017-09-12T16:32:43.588Z,0.80
2017-09-12T16:35:11.160Z,0.70
2017-09-12T16:37:39.087Z,0.70
2017-09-12T16:40:06.699Z,0.80
2017-09-12T16:42:34.308Z,0.80
2017-09-12T16:45:02.101Z,0.90
2017-09-12T16:47:29.848Z,0.53
2017-09-12T16:49:57.455Z,0.50
2017-09-12T16:52:25.509Z,0.63
2017-09-12T16:54:53.320Z,0.83
2017-09-12T16:57:21.086Z,0.57
2017-09-12T16:59:49.135Z,0.70
2017-09-12T17:02:16.895Z,0.73
2017-09-12T17:04:44.757Z,1.00
2017-09-12T17:07:12.449Z,0.77
2017-09-12T17:09:40.656Z,0.87
2017-09-12T17:12:08.572Z,0.83
2017-09-12T17:14:37.184Z,0.53
2017-09-12T17:17:05.225Z,1.00
2017-09-12T17:19:33.168Z,0.80
2017-09-12T17:22:00.856Z,0.80
2017-09-12T17:24:28.598Z,0.50
2017-09-12T17:26:57.775Z,0.70
2017-09-12T17:29:25.628Z,0.50
2017-09-12T17:31:53.938Z,0.70
2017-09-12T17:34:21.767Z,0.50
2017-09-12T17:36:49.493Z,0.70
2017-09-12T17:39:18.148Z,1.20
2017-09-12T17:41:46.204Z,0.63
2017-09-12T17:44:15.027Z,0.60
2017-09-12T17:46:42.960Z,0.70
2017-09-12T17:49:10.608Z,0.50
2017-09-12T17:51:38.303Z,0.50
2017-09-12T17:56:39.904Z,1.07
2017-09-12T17:59:07.540Z,0.60
2017-09-12T18:01:35.217Z,0.70
2017-09-12T18:04:03.106Z,0.60
2017-09-12T18:06:30.967Z,0.60
2017-09-12T18:08:59.244Z,0.60
2017-09-12T18:11:27.487Z,0.77
2017-09-12T18:13:55.147Z,0.53
2017-09-12T18:16:22.881Z,1.00
2017-09-12T18:18:50.957Z,0.83
2017-09-12T18:21:18.846Z,0.70
2017-09-12T18:23:46.573Z,0.63
2017-09-12T18:26:14.496Z,0.80
2017-09-12T18:28:42.319Z,0.80
2017-09-12T18:31:10.133Z,0.60
2017-09-12T18:33:38.025Z,0.90
2017-09-12T18:36:05.716Z,0.90
2017-09-12T18:38:33.479Z,0.93
2017-09-12T18:41:01.006Z,0.77
2017-09-12T18:43:29.007Z,0.60
2017-09-12T18:45:56.623Z,0.70
2017-09-12T18:48:24.302Z,0.90
2017-09-12T18:50:52.014Z,0.70
2017-09-12T18:53:19.634Z,0.70
2017-09-12T18:55:47.729Z,0.80
2017-09-12T19:03:23.272Z,0.70
2017-09-12T19:05:51.189Z,0.77
2017-09-12T19:08:20.119Z,1.10
2017-09-12T19:13:22.190Z,0.93
2017-09-12T19:15:50.074Z,1.23
2017-09-12T19:18:17.788Z,0.60
2017-09-12T19:20:46.712Z,0.90
2017-09-12T19:23:14.322Z,0.90
2017-09-12T19:25:46.051Z,0.70
2017-09-12T19:28:14.041Z,1.07
2017-09-12T19:30:41.735Z,0.90
2017-09-12T19:33:09.476Z,0.87
2017-09-12T19:35:37.150Z,0.80
2017-09-12T19:38:13.737Z,0.53
2017-09-12T19:40:41.486Z,0.80
2017-09-12T19:43:09.122Z,0.90
2017-09-12T19:45:36.842Z,0.70
2017-09-12T19:48:05.424Z,1.00
2017-09-12T19:50:33.359Z,0.93
2017-09-12T19:53:00.987Z,1.03
2017-09-12T19:55:28.623Z,0.63
2017-09-12T19:57:56.298Z,1.60
2017-09-12T20:00:24.037Z,1.00
2017-09-12T20:02:51.751Z,0.87
2017-09-12T20:05:19.365Z,1.13
2017-09-12T20:07:47.167Z,0.80
2017-09-12T20:10:15.074Z,0.80
2017-09-12T20:12:43.631Z,0.80
2017-09-12T20:15:11.399Z,0.80
2017-09-12T20:17:39.024Z,0.83
2017-09-12T20:20:06.598Z,0.90
2017-09-12T20:22:34.433Z,1.20
2017-09-12T20:25:02.044Z,0.90
2017-09-12T20:27:29.658Z,0.87
2017-09-12T20:29:57.269Z,0.80
2017-09-12T20:32:25.032Z,1.03
2017-09-12T20:34:52.623Z,1.00
2017-09-12T20:37:20.251Z,1.03
2017-09-12T20:39:47.846Z,1.30
2017-09-12T20:42:15.541Z,1.23
2017-09-12T20:44:43.172Z,1.00
2017-09-12T20:49:44.531Z,0.80
2017-09-12T20:52:12.113Z,1.00
2017-09-12T20:54:43.334Z,0.80
2017-09-12T20:57:14.319Z,1.20
2017-09-12T20:59:44.916Z,1.00
2017-09-12T21:02:12.682Z,1.37
2017-09-12T21:04:40.930Z,1.13
2017-09-12T21:07:08.533Z,1.10
2017-09-12T21:09:36.175Z,1.27
2017-09-12T21:12:04.169Z,0.70
2017-09-12T21:14:32.105Z,0.90
2017-09-12T21:16:59.796Z,0.93
2017-09-12T21:19:27.435Z,0.70
2017-09-12T21:21:55.048Z,1.40
2017-09-12T21:24:22.763Z,0.87
2017-09-12T21:26:50.556Z,1.03
2017-09-12T21:29:18.736Z,1.00
2017-09-12T21:31:46.417Z,0.70
2017-09-12T21:34:14.099Z,1.43
2017-09-12T21:39:17.340Z,0.73
2017-09-12T21:41:45.119Z,0.97
2017-09-12T21:44:16.668Z,0.97
2017-09-12T21:46:46.948Z,1.40
2017-09-12T21:49:14.568Z,1.00
2017-09-12T21:51:42.280Z,1.00
2017-09-12T21:54:09.873Z,1.13
2017-09-12T21:56:37.582Z,0.67
2017-09-12T21:59:06.653Z,0.90
2017-09-12T22:01:34.322Z,1.03
2017-09-12T22:04:01.911Z,0.90
2017-09-12T22:06:29.550Z,0.80
2017-09-12T22:08:57.183Z,0.73
2017-09-12T22:11:34.653Z,1.00
2017-09-12T22:14:02.394Z,1.43
2017-09-12T22:16:30.002Z,0.93
2017-09-12T22:18:57.889Z,1.07
2017-09-12T22:23:59.389Z,0.87
2017-09-12T22:26:27.077Z,1.20
2017-09-12T22:28:55.144Z,0.83
2017-09-12T22:31:25.060Z,0.93
2017-09-12T22:33:52.740Z,1.40
2017-09-12T22:36:20.468Z,1.43
2017-09-12T22:38:48.720Z,1.27
2017-09-12T22:41:16.455Z,1.17
2017-09-12T22:43:45.214Z,1.10
2017-09-12T22:46:14.376Z,1.10
2017-09-12T22:48:41.947Z,1.33
2017-09-12T22:51:12.144Z,1.20
2017-09-12T22:53:39.792Z,1.53
2017-09-12T22:56:07.395Z,1.03
2017-09-12T22:58:35.060Z,1.00
2017-09-12T23:01:03.153Z,1.00
2017-09-12T23:03:30.969Z,1.07
2017-09-12T23:05:58.666Z,1.23
2017-09-12T23:08:26.290Z,1.37
2017-09-12T23:10:54.017Z,1.10
2017-09-12T23:13:21.623Z,0.80
2017-09-12T23:15:49.918Z,1.03
2017-09-12T23:18:17.533Z,1.00
2017-09-12T23:20:45.173Z,1.13
2017-09-12T23:23:12.990Z,1.10
2017-09-12T23:25:40.632Z,1.23
2017-09-12T23:28:09.181Z,1.00
2017-09-12T23:30:36.776Z,1.57
2017-09-12T23:33:05.149Z,1.00
2017-09-12T23:35:32.812Z,1.13
2017-09-12T23:38:00.514Z,0.93
2017-09-12T23:40:28.368Z,1.00
2017-09-12T23:42:55.912Z,0.90
2017-09-12T23:47:59.226Z,1.17
2017-09-12T23:50:26.866Z,1.10
2017-09-12T23:52:54.481Z,1.03
2017-09-12T23:55:22.140Z,0.90
2017-09-12T23:57:49.703Z,0.80
